Time;durP1;ratioP1;P1;durP2;ratioP2;P2;SDS_P1;SDS_P2;PMS_P1;PMS_P2;Temp;Humidity;BMP_temperature;BMP_pressure;BME280_temperature;BME280_humidity;BME280_pressure;Samples;Min_cycle;Max_cycle;Signal;HPM_P1;HPM_P2
2021/12/13 00:01:41;;;;;;;14.32;3.17;;;11.20;99.90;;;;;;5074304;28;20025;-73
2021/12/13 00:04:10;;;;;;;18.85;3.55;;;11.30;99.90;;;;;;5075297;28;20060;-73
2021/12/13 00:06:43;;;;;;;19.77;4.10;;;11.30;99.90;;;;;;5074824;28;20031;-74
2021/12/13 00:09:15;;;;;;;14.45;2.70;;;11.30;99.90;;;;;;5074835;28;20468;-75
2021/12/13 00:11:51;;;;;;;16.05;3.45;;;11.30;99.90;;;;;;5075461;28;20050;-73
2021/12/13 00:14:22;;;;;;;14.52;2.55;;;11.30;99.90;;;;;;5056611;28;20220;-72
2021/12/13 00:16:59;;;;;;;14.90;2.90;;;11.30;99.90;;;;;;5075108;28;20044;-75
2021/12/13 00:19:35;;;;;;;19.90;2.58;;;11.30;99.90;;;;;;5076372;28;20075;-76
2021/12/13 00:22:08;;;;;;;16.08;2.88;;;11.30;99.90;;;;;;5095281;28;20089;-73
2021/12/13 00:24:39;;;;;;;13.38;2.80;;;11.30;99.90;;;;;;5095628;28;20517;-75
2021/12/13 00:27:25;;;;;;;17.40;2.73;;;11.30;99.90;;;;;;5095327;28;20055;-76
2021/12/13 00:30:07;;;;;;;18.70;3.10;;;11.30;99.90;;;;;;5095227;28;20024;-73
2021/12/13 00:32:59;;;;;;;10.50;2.65;;;11.40;99.90;;;;;;5103411;28;20032;-74
2021/12/13 00:35:40;;;;;;;12.30;2.90;;;11.40;99.90;;;;;;5095132;28;20051;-74
2021/12/13 00:38:08;;;;;;;12.05;2.33;;;11.40;99.90;;;;;;5094084;28;20043;-74
2021/12/13 00:40:44;;;;;;;11.27;2.70;;;11.40;99.90;;;;;;5094920;28;20027;-72
2021/12/13 00:43:19;;;;;;;10.30;2.28;;;11.40;99.90;;;;;;5094028;28;20032;-73
2021/12/13 00:45:59;;;;;;;18.67;3.33;;;11.40;99.90;;;;;;5094853;28;20020;-74
2021/12/13 00:48:27;;;;;;;15.85;2.65;;;11.30;99.90;;;;;;5095123;28;20024;-73
2021/12/13 00:51:04;;;;;;;10.60;2.40;;;11.40;99.90;;;;;;5094041;28;20425;-73
2021/12/13 00:53:35;;;;;;;10.57;2.47;;;11.30;99.90;;;;;;5076455;28;20031;-74
2021/12/13 00:56:39;;;;;;;10.70;2.40;;;11.40;99.90;;;;;;5094356;28;20062;-76
2021/12/13 00:59:06;;;;;;;13.48;2.40;;;11.40;99.90;;;;;;5094327;28;20424;-75
2021/12/13 01:01:36;;;;;;;12.02;2.42;;;11.40;99.90;;;;;;5085371;28;20039;-75
2021/12/13 01:04:07;;;;;;;11.05;2.50;;;11.40;99.90;;;;;;5092860;28;20028;-74
2021/12/13 01:07:17;;;;;;;9.73;2.50;;;11.40;99.90;;;;;;5090975;28;20046;-72
2021/12/13 01:10:10;;;;;;;10.55;2.45;;;11.30;99.90;;;;;;5091688;28;20139;-72
2021/12/13 01:12:36;;;;;;;14.70;2.67;;;11.30;99.90;;;;;;5091110;28;20100;-74
2021/12/13 01:15:16;;;;;;;17.23;3.03;;;11.40;99.90;;;;;;5092810;28;20103;-75
2021/12/13 01:18:00;;;;;;;6.90;1.80;;;11.30;99.90;;;;;;5093011;28;20035;-74
2021/12/13 01:20:33;;;;;;;6.53;1.42;;;11.40;99.90;;;;;;5092988;28;20103;-73
2021/12/13 01:23:07;;;;;;;10.60;1.95;;;11.30;99.90;;;;;;5092950;28;20028;-75
2021/12/13 01:25:47;;;;;;;9.95;1.75;;;11.30;99.90;;;;;;5091069;28;20020;-73
2021/12/13 01:28:22;;;;;;;9.32;1.50;;;11.30;99.90;;;;;;5090927;28;20016;-75
2021/12/13 01:30:53;;;;;;;6.50;1.67;;;11.30;99.90;;;;;;5089142;28;20028;-75
2021/12/13 01:33:21;;;;;;;9.30;1.70;;;11.40;99.90;;;;;;5092960;28;20066;-74
2021/12/13 01:35:49;;;;;;;11.02;1.70;;;11.40;99.90;;;;;;5092731;28;20020;-72
2021/12/13 01:38:30;;;;;;;4.25;1.17;;;11.40;99.90;;;;;;5092849;28;20030;-73
2021/12/13 01:40:56;;;;;;;9.40;1.55;;;11.40;99.90;;;;;;5091035;28;20023;-73
2021/12/13 01:43:28;;;;;;;7.40;1.35;;;11.40;99.90;;;;;;5092539;28;20048;-72
2021/12/13 01:45:55;;;;;;;5.22;1.40;;;11.50;99.90;;;;;;5091886;28;20032;-74
2021/12/13 01:48:34;;;;;;;7.00;1.17;;;11.60;99.90;;;;;;5093677;28;20067;-73
2021/12/13 01:51:07;;;;;;;6.68;1.10;;;11.60;99.90;;;;;;5091504;28;20077;-74
2021/12/13 01:53:36;;;;;;;5.15;1.10;;;11.60;99.90;;;;;;5090269;28;20024;-76
2021/12/13 01:56:11;;;;;;;5.68;1.33;;;11.70;99.90;;;;;;5092261;28;20024;-75
2021/12/13 01:58:43;;;;;;;3.88;0.82;;;11.70;99.90;;;;;;5072943;28;20024;-75
2021/12/13 02:01:09;;;;;;;;;;;11.70;99.90;;;;;;5091443;28;20039;-72
2021/12/13 02:03:43;;;;;;;3.22;0.80;;;11.70;99.90;;;;;;5092133;28;20332;-75
2021/12/13 02:06:12;;;;;;;4.00;1.10;;;11.70;99.90;;;;;;5072320;28;20044;-74
2021/12/13 02:08:38;;;;;;;1.35;0.82;;;11.70;99.90;;;;;;5073281;28;20379;-74
2021/12/13 02:11:09;;;;;;;0.75;0.70;;;11.70;99.90;;;;;;5073408;28;20103;-73
2021/12/13 02:13:42;;;;;;;6.32;1.42;;;11.70;99.90;;;;;;5072366;28;20032;-74
2021/12/13 02:18:57;;;;;;;6.32;1.20;;;11.70;99.90;;;;;;5073204;28;20027;-75
2021/12/13 02:21:35;;;;;;;3.97;1.27;;;11.70;99.90;;;;;;5089629;28;20035;-75
2021/12/13 02:24:07;;;;;;;4.70;1.30;;;11.70;99.90;;;;;;5092293;28;20020;-75
2021/12/13 02:26:46;;;;;;;5.30;1.05;;;11.70;99.90;;;;;;5093199;28;20028;-73
2021/12/13 02:29:34;;;;;;;4.85;1.42;;;11.70;99.90;;;;;;5092856;28;20077;-73
2021/12/13 02:32:00;;;;;;;4.88;0.80;;;11.70;99.90;;;;;;5093603;28;20082;-74
2021/12/13 02:34:29;;;;;;;3.85;1.50;;;11.60;99.90;;;;;;5093127;28;20016;-75
2021/12/13 02:36:55;;;;;;;2.80;1.10;;;11.70;99.90;;;;;;5093140;28;20020;-75
2021/12/13 02:39:33;;;;;;;3.85;1.13;;;11.70;99.90;;;;;;5092732;28;20055;-73
2021/12/13 02:42:02;;;;;;;5.07;1.60;;;11.70;99.90;;;;;;5093271;28;20035;-75
2021/12/13 02:44:37;;;;;;;5.53;1.75;;;11.70;99.90;;;;;;5093267;28;20036;-74
2021/12/13 02:47:12;;;;;;;7.40;2.20;;;11.60;99.90;;;;;;5093184;28;20024;-73
2021/12/13 02:49:38;;;;;;;6.97;1.85;;;11.70;99.90;;;;;;5093129;28;20032;-75
2021/12/13 02:52:07;;;;;;;7.72;2.20;;;11.70;99.90;;;;;;5091667;28;20479;-75
2021/12/13 02:54:40;;;;;;;5.95;2.20;;;11.60;99.90;;;;;;5093118;28;20107;-75
2021/12/13 02:57:15;;;;;;;5.93;2.30;;;11.50;99.90;;;;;;5092932;28;20117;-73
2021/12/13 03:00:03;;;;;;;5.15;2.42;;;11.50;99.90;;;;;;5092929;28;20371;-74
2021/12/13 03:02:39;;;;;;;8.25;2.20;;;11.60;99.90;;;;;;5079001;28;20044;-75
2021/12/13 03:05:08;;;;;;;5.20;1.73;;;11.60;99.90;;;;;;5092898;28;20048;-75
2021/12/13 03:07:39;;;;;;;5.82;2.00;;;11.60;99.90;;;;;;5093013;28;20070;-74
2021/12/13 03:10:11;;;;;;;7.87;2.33;;;11.60;99.90;;;;;;5091803;28;20051;-74
2021/12/13 03:12:38;;;;;;;5.45;2.50;;;11.60;99.90;;;;;;5092830;28;20045;-73
2021/12/13 03:15:10;;;;;;;6.70;2.50;;;11.60;99.90;;;;;;5093031;28;20070;-74
2021/12/13 03:18:06;;;;;;;6.72;2.20;;;11.60;99.90;;;;;;5093116;28;20027;-73
2021/12/13 03:20:37;;;;;;;4.22;2.10;;;11.60;99.90;;;;;;5093055;28;20115;-74
2021/12/13 03:23:25;;;;;;;7.78;2.50;;;11.50;99.90;;;;;;5092189;28;20392;-73
2021/12/13 03:26:09;;;;;;;8.20;2.30;;;11.50;99.90;;;;;;5092464;28;20032;-74
2021/12/13 03:28:55;;;;;;;6.45;2.50;;;11.50;99.90;;;;;;5092886;28;20024;-73
2021/12/13 03:31:26;;;;;;;7.28;2.47;;;11.50;99.90;;;;;;5091670;28;20033;-73
2021/12/13 03:33:51;;;;;;;8.75;2.72;;;11.50;99.90;;;;;;5093140;28;20035;-73
2021/12/13 03:36:59;;;;;;;9.88;3.97;;;11.50;99.90;;;;;;5094915;28;20077;-73
2021/12/13 03:39:41;;;;;;;4.82;3.38;;;11.50;99.90;;;;;;5112069;28;20032;-74
2021/12/13 03:42:15;;;;;;;7.65;2.75;;;11.50;99.90;;;;;;5095267;28;20051;-73
2021/12/13 03:44:47;;;;;;;8.13;2.75;;;11.50;99.90;;;;;;5096081;28;20040;-73
2021/12/13 03:47:20;;;;;;;6.13;2.55;;;11.50;99.90;;;;;;5094834;28;20028;-73
2021/12/13 03:49:51;;;;;;;8.93;2.50;;;11.50;99.90;;;;;;5096022;28;20043;-73
2021/12/13 03:52:20;;;;;;;8.75;3.10;;;11.50;99.90;;;;;;5095700;28;20028;-73
2021/12/13 03:54:49;;;;;;;7.30;2.80;;;11.50;99.90;;;;;;5096131;28;20035;-73
2021/12/13 03:57:17;;;;;;;8.40;2.78;;;11.60;99.90;;;;;;5095898;28;20032;-74
2021/12/13 03:59:45;;;;;;;8.60;2.45;;;11.60;99.90;;;;;;5094651;28;20024;-73
2021/12/13 04:02:18;;;;;;;9.23;3.15;;;11.50;99.90;;;;;;5077841;28;20028;-74
2021/12/13 04:05:00;;;;;;;9.45;3.08;;;11.50;99.90;;;;;;5077385;28;20064;-73
2021/12/13 04:07:33;;;;;;;5.68;2.90;;;11.50;99.90;;;;;;5095860;28;20032;-75
2021/12/13 04:10:04;;;;;;;8.80;4.40;;;11.50;99.90;;;;;;5095833;28;20425;-73
2021/12/13 04:12:44;;;;;;;7.28;3.60;;;11.50;99.90;;;;;;5095814;28;20031;-73
2021/12/13 04:15:16;;;;;;;6.93;2.58;;;11.50;99.90;;;;;;5095386;28;20028;-74
2021/12/13 04:17:59;;;;;;;8.35;3.35;;;11.40;99.90;;;;;;5095860;28;20036;-74
2021/12/13 04:20:32;;;;;;;6.53;2.88;;;11.40;99.90;;;;;;5095945;28;20058;-73
2021/12/13 04:23:06;;;;;;;10.57;3.78;;;11.50;99.90;;;;;;5077290;28;20044;-72
2021/12/13 04:25:36;;;;;;;9.23;3.55;;;11.40;99.90;;;;;;5095407;28;20098;-74
2021/12/13 04:28:12;;;;;;;7.25;3.85;;;11.40;99.90;;;;;;5095911;28;20051;-72
2021/12/13 04:30:52;;;;;;;7.25;3.05;;;11.40;99.90;;;;;;5077405;28;20024;-73
2021/12/13 04:33:31;;;;;;;7.60;3.20;;;11.40;99.90;;;;;;5095309;28;20566;-73
2021/12/13 04:36:07;;;;;;;9.82;3.85;;;11.40;99.90;;;;;;5095183;28;20024;-72
2021/12/13 04:38:51;;;;;;;9.80;3.47;;;11.40;99.90;;;;;;5095644;28;20024;-73
2021/12/13 04:41:30;;;;;;;9.35;4.30;;;11.40;99.90;;;;;;5095192;28;20016;-73
2021/12/13 04:44:15;;;;;;;13.80;4.63;;;11.40;99.90;;;;;;5095179;28;20031;-73
2021/12/13 04:46:43;;;;;;;8.82;3.95;;;11.40;99.90;;;;;;5101057;28;20148;-73
2021/12/13 04:49:17;;;;;;;9.95;4.47;;;11.40;99.90;;;;;;5100026;28;20111;-73
2021/12/13 04:51:51;;;;;;;9.38;4.57;;;11.40;99.90;;;;;;5095333;28;20020;-73
2021/12/13 04:54:17;;;;;;;7.07;3.17;;;11.50;99.90;;;;;;5094874;28;20360;-73
2021/12/13 04:56:44;;;;;;;11.95;4.47;;;11.40;99.90;;;;;;5094799;28;20444;-73
2021/12/13 04:59:13;;;;;;;11.43;5.22;;;11.50;99.90;;;;;;5094406;28;20039;-74
2021/12/13 05:01:39;;;;;;;12.70;4.55;;;11.50;99.90;;;;;;5094537;28;20427;-72
2021/12/13 05:04:08;;;;;;;13.70;4.88;;;11.40;99.90;;;;;;5094580;28;20060;-73
2021/12/13 05:06:38;;;;;;;12.98;5.20;;;11.50;99.90;;;;;;5093615;28;20081;-73
2021/12/13 05:09:07;;;;;;;9.43;4.60;;;11.50;99.90;;;;;;5094519;28;20063;-73
2021/12/13 05:11:41;;;;;;;9.10;4.00;;;11.50;99.90;;;;;;5093024;28;20024;-73
2021/12/13 05:14:09;;;;;;;9.75;4.43;;;11.50;99.90;;;;;;5093250;28;20056;-73
2021/12/13 05:16:56;;;;;;;10.93;4.80;;;11.50;99.90;;;;;;5094840;28;20059;-73
2021/12/13 05:19:33;;;;;;;10.85;4.35;;;11.50;99.90;;;;;;5094472;28;20036;-72
2021/12/13 05:22:01;;;;;;;11.00;4.18;;;11.50;99.90;;;;;;5094250;28;20364;-73
2021/12/13 05:24:30;;;;;;;7.60;3.97;;;11.50;99.90;;;;;;5094823;28;20050;-73
2021/12/13 05:27:04;;;;;;;12.63;5.40;;;11.50;99.90;;;;;;5094422;28;20028;-73
2021/12/13 05:29:48;;;;;;;8.38;3.63;;;11.50;99.90;;;;;;5094399;28;20092;-72
2021/12/13 05:32:24;;;;;;;9.15;4.63;;;11.50;99.90;;;;;;5073600;28;20028;-72
2021/12/13 05:34:55;;;;;;;12.50;4.68;;;11.50;99.90;;;;;;5073770;28;20021;-73
2021/12/13 05:37:21;;;;;;;10.37;4.97;;;11.50;99.90;;;;;;5074122;28;20021;-73
2021/12/13 05:40:23;;;;;;;9.20;4.05;;;11.50;99.90;;;;;;5072729;28;20261;-72
2021/12/13 05:42:55;;;;;;;6.97;4.38;;;11.50;99.90;;;;;;5073696;28;20103;-73
2021/12/13 05:45:36;;;;;;;10.32;4.55;;;11.40;99.90;;;;;;5073299;28;20124;-72
2021/12/13 05:48:10;;;;;;;12.15;4.90;;;11.40;99.90;;;;;;5073688;28;20032;-73
2021/12/13 05:50:41;;;;;;;10.38;4.43;;;11.50;99.90;;;;;;5056263;28;20391;-73
2021/12/13 05:53:14;;;;;;;9.60;4.60;;;11.50;99.90;;;;;;5080550;28;20024;-73
2021/12/13 05:56:14;;;;;;;9.88;4.32;;;11.50;99.90;;;;;;5092090;28;20454;-73
2021/12/13 05:58:46;;;;;;;12.32;4.40;;;11.50;99.90;;;;;;5065124;28;20120;-73
2021/12/13 06:01:22;;;;;;;8.77;3.80;;;11.60;99.90;;;;;;5093063;28;20361;-74
2021/12/13 06:04:05;;;;;;;9.02;4.20;;;11.60;99.90;;;;;;5093393;28;20048;-73
2021/12/13 06:06:33;;;;;;;10.70;4.22;;;11.50;99.90;;;;;;5092780;28;20035;-73
2021/12/13 06:09:00;;;;;;;4.97;3.22;;;11.50;99.90;;;;;;5093202;28;20020;-73
2021/12/13 06:11:32;;;;;;;11.63;4.18;;;11.60;99.90;;;;;;5093304;28;20028;-73
2021/12/13 06:14:11;;;;;;;9.88;4.25;;;11.50;99.90;;;;;;5093204;28;20451;-73
2021/12/13 06:16:47;;;;;;;7.35;3.47;;;11.60;99.90;;;;;;5092940;28;20519;-73
2021/12/13 06:19:20;;;;;;;10.00;3.75;;;11.60;99.90;;;;;;5092899;28;20459;-73
2021/12/13 06:21:49;;;;;;;12.95;4.53;;;11.50;99.90;;;;;;5092662;28;20521;-73
2021/12/13 06:24:34;;;;;;;9.23;4.10;;;11.50;99.90;;;;;;5092626;28;20040;-73
2021/12/13 06:27:07;;;;;;;7.50;3.88;;;11.50;99.90;;;;;;5082114;28;20038;-72
2021/12/13 06:29:51;;;;;;;7.95;3.92;;;11.60;99.90;;;;;;5092806;28;20090;-73
2021/12/13 06:32:27;;;;;;;9.23;3.45;;;11.50;99.90;;;;;;5093184;28;20024;-72
2021/12/13 06:34:52;;;;;;;9.02;3.75;;;11.50;99.90;;;;;;5092970;28;20020;-73
2021/12/13 06:37:33;;;;;;;9.27;3.75;;;11.50;99.90;;;;;;5092568;28;20077;-72
2021/12/13 06:40:16;;;;;;;7.35;3.40;;;11.50;99.90;;;;;;5092873;28;20028;-73
2021/12/13 06:42:42;;;;;;;6.65;3.22;;;11.50;99.90;;;;;;5090905;28;20368;-73
2021/12/13 06:45:22;;;;;;;8.50;3.72;;;11.50;99.90;;;;;;5092172;28;20032;-73
2021/12/13 06:47:51;;;;;;;8.27;3.38;;;11.50;99.90;;;;;;5094580;28;20047;-72
2021/12/13 06:50:30;;;;;;;6.07;2.55;;;11.50;99.90;;;;;;5084809;28;20354;-73
2021/12/13 06:53:18;;;;;;;6.32;2.88;;;11.50;99.90;;;;;;5091949;28;20031;-73
2021/12/13 06:55:45;;;;;;;7.82;2.83;;;11.50;99.90;;;;;;5093655;28;20032;-73
2021/12/13 06:58:19;;;;;;;7.03;3.13;;;11.50;99.90;;;;;;5092417;28;20488;-72
2021/12/13 07:00:46;;;;;;;8.48;3.08;;;11.50;99.90;;;;;;5092200;28;20389;-73
2021/12/13 07:03:20;;;;;;;4.90;2.90;;;11.50;99.90;;;;;;5101198;28;20039;-72
2021/12/13 07:05:50;;;;;;;11.13;3.40;;;11.50;99.90;;;;;;5093607;28;20044;-73
2021/12/13 07:08:26;;;;;;;7.53;3.80;;;11.50;99.90;;;;;;5091410;28;20074;-73
2021/12/13 07:10:52;;;;;;;6.53;2.80;;;11.50;99.90;;;;;;5094073;28;20027;-72
2021/12/13 07:13:20;;;;;;;8.57;3.25;;;11.50;99.90;;;;;;5096293;28;20028;-73
2021/12/13 07:16:20;;;;;;;5.22;2.35;;;11.40;99.90;;;;;;5096668;28;20024;-72
2021/12/13 07:18:50;;;;;;;6.78;2.95;;;11.40;99.90;;;;;;5096939;28;20017;-72
2021/12/13 07:21:22;;;;;;;6.75;2.83;;;11.40;99.90;;;;;;5096153;28;20020;-73
2021/12/13 07:24:04;;;;;;;4.90;2.67;;;11.40;99.90;;;;;;5096389;28;20035;-72
2021/12/13 07:26:38;;;;;;;8.32;3.15;;;11.40;99.90;;;;;;5094936;28;20510;-74
2021/12/13 07:29:18;;;;;;;6.00;3.10;;;11.40;99.90;;;;;;5096327;28;20153;-74
2021/12/13 07:31:47;;;;;;;8.55;3.08;;;11.40;99.90;;;;;;5095490;28;20038;-73
2021/12/13 07:34:18;;;;;;;6.18;3.13;;;11.40;99.90;;;;;;5094887;28;20479;-73
2021/12/13 07:36:53;;;;;;;10.50;3.50;;;11.40;99.90;;;;;;5096679;28;20032;-73
2021/12/13 07:39:23;;;;;;;7.75;3.63;;;11.40;99.90;;;;;;5096004;28;20028;-73
2021/12/13 07:41:52;;;;;;;8.35;3.13;;;11.40;99.90;;;;;;5096338;28;20032;-72
2021/12/13 07:44:36;;;;;;;8.18;3.50;;;11.40;99.90;;;;;;5095892;28;20060;-72
2021/12/13 07:47:32;;;;;;;9.23;3.28;;;11.40;99.90;;;;;;5105758;28;20027;-72
2021/12/13 07:50:01;;;;;;;11.02;3.58;;;11.40;99.90;;;;;;5071919;28;20051;-73
2021/12/13 07:52:34;;;;;;;7.57;3.13;;;11.40;99.90;;;;;;5094882;28;20024;-73
2021/12/13 07:55:19;;;;;;;11.27;3.42;;;11.50;99.90;;;;;;5096319;28;20024;-75
2021/12/13 07:57:46;;;;;;;7.28;3.08;;;11.40;99.90;;;;;;5095915;28;20036;-72
2021/12/13 08:00:20;;;;;;;8.90;3.95;;;11.40;99.90;;;;;;5093745;28;20070;-73
2021/12/13 08:02:59;;;;;;;5.93;3.47;;;11.40;99.90;;;;;;5095730;28;20024;-73
2021/12/13 08:05:30;;;;;;;10.43;3.50;;;11.40;99.90;;;;;;5095705;28;20048;-73
2021/12/13 08:08:01;;;;;;;7.07;3.33;;;11.40;99.90;;;;;;5095631;28;20052;-72
2021/12/13 08:10:56;;;;;;;9.13;3.63;;;11.40;99.90;;;;;;5095073;28;20038;-73
2021/12/13 08:13:26;;;;;;;9.48;3.08;;;11.40;99.90;;;;;;5092629;28;20044;-73
2021/12/13 08:15:57;;;;;;;7.32;3.38;;;11.50;99.90;;;;;;5095716;28;20024;-73
2021/12/13 08:18:30;;;;;;;8.57;3.28;;;11.40;99.90;;;;;;5095571;28;20782;-72
2021/12/13 08:21:04;;;;;;;10.85;4.05;;;11.50;99.90;;;;;;5094749;28;20016;-73
2021/12/13 08:23:45;;;;;;;11.23;4.00;;;11.50;99.90;;;;;;5094187;28;20521;-73
2021/12/13 08:26:15;;;;;;;12.02;4.35;;;11.40;99.90;;;;;;5076945;28;20020;-72
2021/12/13 08:28:47;;;;;;;10.52;4.93;;;11.40;99.90;;;;;;5094007;28;20418;-72
2021/12/13 08:31:26;;;;;;;7.72;4.57;;;11.40;99.90;;;;;;5091981;28;20020;-73
2021/12/13 08:34:04;;;;;;;9.80;4.40;;;11.40;99.90;;;;;;5093536;28;20047;-73
2021/12/13 08:36:51;;;;;;;10.07;4.97;;;11.40;99.90;;;;;;5093599;28;20024;-72
2021/12/13 08:39:22;;;;;;;7.00;3.72;;;11.40;99.90;;;;;;5095140;28;20024;-73
2021/12/13 08:41:58;;;;;;;10.77;4.40;;;11.40;99.90;;;;;;5094552;28;20032;-73
2021/12/13 08:44:38;;;;;;;10.38;5.40;;;11.40;99.90;;;;;;5094718;28;20132;-73
2021/12/13 08:47:09;;;;;;;11.82;5.18;;;11.40;99.90;;;;;;5094484;28;20016;-73
2021/12/13 08:49:37;;;;;;;13.50;4.82;;;11.40;99.90;;;;;;5094817;28;20077;-74
2021/12/13 08:52:24;;;;;;;12.25;5.13;;;11.40;99.90;;;;;;5094015;28;20024;-73
2021/12/13 08:54:52;;;;;;;11.05;4.78;;;11.40;99.90;;;;;;5094198;28;20107;-73
2021/12/13 08:57:56;;;;;;;12.50;5.30;;;11.40;99.90;;;;;;5094010;28;20016;-73
2021/12/13 09:00:48;;;;;;;11.55;4.88;;;11.40;99.90;;;;;;5044975;28;20117;-71
2021/12/13 09:03:30;;;;;;;14.27;5.45;;;11.50;99.90;;;;;;5093920;28;20084;-72
2021/12/13 09:06:02;;;;;;;9.63;4.70;;;11.50;99.90;;;;;;5092985;28;20039;-74
2021/12/13 09:08:50;;;;;;;10.85;4.95;;;11.60;99.90;;;;;;5094358;28;20069;-73
2021/12/13 09:11:33;;;;;;;10.00;4.05;;;11.70;99.90;;;;;;5081795;28;20391;-75
2021/12/13 09:14:15;;;;;;;9.77;3.85;;;11.70;99.90;;;;;;5094365;28;20025;-71
2021/12/13 09:17:15;;;;;;;12.70;5.28;;;11.70;99.90;;;;;;5094136;28;20030;-73
2021/12/13 09:19:44;;;;;;;10.13;4.68;;;11.70;99.90;;;;;;5093807;28;20024;-72
2021/12/13 09:22:18;;;;;;;8.32;3.67;;;11.70;99.90;;;;;;5094258;28;20020;-73
2021/12/13 09:24:47;;;;;;;12.20;4.88;;;11.70;99.90;;;;;;5093169;28;20458;-72
2021/12/13 09:27:24;;;;;;;10.88;4.40;;;11.70;99.90;;;;;;5092769;28;20023;-72
2021/12/13 09:30:01;;;;;;;9.52;4.55;;;11.80;99.90;;;;;;5094038;28;20024;-72
2021/12/13 09:32:37;;;;;;;11.05;4.82;;;11.90;99.90;;;;;;5093694;28;20032;-75
2021/12/13 09:35:38;;;;;;;12.18;5.00;;;11.90;99.90;;;;;;5093868;28;20024;-73
2021/12/13 09:38:41;;;;;;;12.30;4.60;;;12.00;99.90;;;;;;5093339;28;20166;-75
2021/12/13 09:41:10;;;;;;;8.35;4.35;;;12.00;99.90;;;;;;5082535;28;20047;-73
2021/12/13 09:43:50;;;;;;;9.50;3.90;;;12.10;99.90;;;;;;5093567;28;20039;-74
2021/12/13 09:46:30;;;;;;;9.70;4.30;;;12.10;99.90;;;;;;5093800;28;20024;-73
2021/12/13 09:49:01;;;;;;;8.43;3.30;;;12.00;99.90;;;;;;5093981;28;20028;-72
2021/12/13 09:51:37;;;;;;;7.97;4.25;;;12.10;99.90;;;;;;5093796;28;20055;-73
2021/12/13 09:54:06;;;;;;;12.63;4.85;;;12.10;99.90;;;;;;5093825;28;20032;-72
2021/12/13 09:56:46;;;;;;;7.78;3.70;;;12.10;99.90;;;;;;5093686;28;20032;-73
2021/12/13 09:59:25;;;;;;;11.65;4.30;;;12.20;99.90;;;;;;5093724;28;20020;-74
2021/12/13 10:01:53;;;;;;;9.48;3.78;;;12.30;99.90;;;;;;5093834;28;20116;-72
2021/12/13 10:04:35;;;;;;;8.32;3.33;;;12.30;99.90;;;;;;5088702;28;20190;-73
2021/12/13 10:07:15;;;;;;;9.07;3.55;;;12.20;99.90;;;;;;5072953;28;20468;-72
2021/12/13 10:09:45;;;;;;;10.32;3.70;;;12.10;99.90;;;;;;5073068;28;20036;-72
2021/12/13 10:12:19;;;;;;;9.15;3.75;;;12.20;99.90;;;;;;5072795;28;20387;-72
2021/12/13 10:15:10;;;;;;;12.55;3.17;;;12.20;99.90;;;;;;5073269;28;20036;-72
2021/12/13 10:17:40;;;;;;;11.85;3.53;;;12.30;99.90;;;;;;5072776;28;20127;-73
2021/12/13 10:20:21;;;;;;;9.77;3.30;;;12.40;99.90;;;;;;5071726;28;20020;-72
2021/12/13 10:22:49;;;;;;;8.57;3.75;;;12.40;99.90;;;;;;5072912;28;20024;-73
2021/12/13 10:25:26;;;;;;;10.40;3.78;;;12.40;99.90;;;;;;5073126;28;20032;-73
2021/12/13 10:27:53;;;;;;;11.63;3.50;;;12.50;99.90;;;;;;5073065;28;20095;-73
2021/12/13 10:30:25;;;;;;;9.30;3.78;;;12.60;99.90;;;;;;5071601;28;20455;-72
2021/12/13 10:32:53;;;;;;;10.18;3.70;;;12.60;99.90;;;;;;5072863;28;20032;-72
2021/12/13 10:35:41;;;;;;;11.38;3.63;;;12.70;99.90;;;;;;5073064;28;20024;-72
2021/12/13 10:38:14;;;;;;;12.20;4.10;;;12.60;99.90;;;;;;5072746;28;20464;-72
2021/12/13 10:40:53;;;;;;;8.50;3.80;;;12.70;99.90;;;;;;5072540;28;20411;-72
2021/12/13 10:43:27;;;;;;;10.88;3.88;;;12.70;99.90;;;;;;5073000;28;20028;-72
2021/12/13 10:46:22;;;;;;;10.95;3.85;;;12.80;99.90;;;;;;5077276;28;20029;-73
2021/12/13 10:48:52;;;;;;;7.95;3.72;;;12.70;99.90;;;;;;5077044;28;20063;-72
2021/12/13 10:51:23;;;;;;;10.52;3.53;;;12.80;99.90;;;;;;5097061;28;20380;-73
2021/12/13 10:53:52;;;;;;;9.65;3.60;;;12.80;99.90;;;;;;5097340;28;20432;-72
2021/12/13 10:56:26;;;;;;;8.68;3.15;;;12.80;99.90;;;;;;5092880;28;20433;-73
2021/12/13 10:58:55;;;;;;;8.30;3.53;;;12.80;99.90;;;;;;5059843;28;20020;-73
2021/12/13 11:01:41;;;;;;;9.93;3.65;;;13.00;99.90;;;;;;5076217;28;20025;-72
2021/12/13 11:04:10;;;;;;;8.20;3.70;;;13.10;99.90;;;;;;5079440;28;20119;-72
2021/12/13 11:06:38;;;;;;;10.60;3.72;;;13.20;99.90;;;;;;5095828;28;20365;-72
2021/12/13 11:09:09;;;;;;;8.38;3.63;;;13.20;99.90;;;;;;5077794;28;20056;-71
2021/12/13 11:11:40;;;;;;;5.43;2.85;;;13.20;99.90;;;;;;5096816;28;20459;-72
2021/12/13 11:14:10;;;;;;;10.13;4.00;;;13.10;99.90;;;;;;5096903;28;20028;-72
2021/12/13 11:16:43;;;;;;;12.85;3.75;;;13.00;99.90;;;;;;5097863;28;20417;-72
2021/12/13 11:19:12;;;;;;;12.02;4.03;;;13.00;99.90;;;;;;5096703;28;20085;-71
2021/12/13 11:21:40;;;;;;;9.60;3.97;;;13.10;99.90;;;;;;5096422;28;20038;-73
2021/12/13 11:24:09;;;;;;;9.13;3.88;;;13.10;99.90;;;;;;5096154;28;20078;-73
2021/12/13 11:26:41;;;;;;;7.60;3.90;;;13.10;99.90;;;;;;5096373;28;20170;-73
2021/12/13 11:29:09;;;;;;;10.15;3.88;;;13.20;99.90;;;;;;5096393;28;20114;-72
2021/12/13 11:32:19;;;;;;;6.13;3.38;;;13.20;99.90;;;;;;5096309;28;20070;-73
2021/12/13 11:35:06;;;;;;;13.90;4.22;;;13.20;99.90;;;;;;5075328;28;20503;-73
2021/12/13 11:38:20;;;;;;;7.00;3.10;;;13.20;99.90;;;;;;5096076;28;20031;-73
2021/12/13 11:41:19;;;;;;;10.00;3.90;;;13.20;99.90;;;;;;5095957;28;20024;-73
2021/12/13 11:44:15;;;;;;;9.18;4.25;;;13.20;99.90;;;;;;5095527;28;20090;-73
2021/12/13 11:47:38;;;;;;;8.55;4.05;;;13.30;99.90;;;;;;5095764;28;20023;-73
2021/12/13 11:50:45;;;;;;;7.97;3.33;;;13.20;99.90;;;;;;5053164;28;20484;-73
2021/12/13 11:53:41;;;;;;;9.10;3.42;;;13.20;99.90;;;;;;5053489;28;20127;-73
2021/12/13 11:56:33;;;;;;;7.03;3.38;;;13.20;99.90;;;;;;5076734;28;20043;-72
2021/12/13 11:59:34;;;;;;;7.40;3.35;;;13.20;99.90;;;;;;5095812;28;20020;-72
2021/12/13 12:02:29;;;;;;;6.50;3.20;;;13.20;99.90;;;;;;5095897;28;20482;-72
2021/12/13 12:05:16;;;;;;;8.82;3.92;;;13.30;99.90;;;;;;5095076;28;20112;-72
2021/12/13 12:08:23;;;;;;;6.72;3.55;;;13.30;99.90;;;;;;5095850;28;20173;-72
2021/12/13 12:11:06;;;;;;;8.35;3.70;;;13.30;99.90;;;;;;5013374;28;20075;-72
2021/12/13 12:14:03;;;;;;;11.95;4.38;;;13.30;99.90;;;;;;5073298;28;20032;-73
2021/12/13 12:16:31;;;;;;;11.15;4.13;;;13.30;99.90;;;;;;5095193;28;20028;-73
2021/12/13 12:18:56;;;;;;;8.52;3.45;;;13.30;99.90;;;;;;5093766;28;20055;-73
2021/12/13 12:21:43;;;;;;;9.80;3.35;;;13.20;99.90;;;;;;5094198;28;20059;-73
2021/12/13 12:24:22;;;;;;;6.93;3.40;;;13.20;99.90;;;;;;5095298;28;20093;-73
2021/12/13 12:26:57;;;;;;;9.25;4.18;;;13.20;99.90;;;;;;5110635;28;20036;-72
2021/12/13 12:29:27;;;;;;;8.85;3.90;;;13.20;99.90;;;;;;5095565;28;20020;-72
2021/12/13 12:32:24;;;;;;;10.45;3.80;;;13.10;99.90;;;;;;5095243;28;20052;-73
2021/12/13 12:34:53;;;;;;;9.63;4.22;;;13.20;99.90;;;;;;5094135;28;20046;-72
2021/12/13 12:37:25;;;;;;;9.95;3.67;;;13.20;99.90;;;;;;5094780;28;20065;-72
2021/12/13 12:40:09;;;;;;;12.40;3.83;;;13.30;99.90;;;;;;5095188;28;20024;-72
2021/12/13 12:42:39;;;;;;;12.07;3.70;;;13.40;99.90;;;;;;5074734;28;20139;-72
2021/12/13 12:45:28;;;;;;;9.52;4.43;;;13.40;99.90;;;;;;5074793;28;20040;-73
2021/12/13 12:48:05;;;;;;;8.38;3.80;;;13.30;99.90;;;;;;5074706;28;20103;-72
2021/12/13 12:50:41;;;;;;;10.63;4.07;;;13.40;99.90;;;;;;5089346;28;20052;-73
2021/12/13 12:53:11;;;;;;;7.90;3.80;;;13.40;99.90;;;;;;5094083;28;20547;-72
2021/12/13 12:55:42;;;;;;;9.90;3.58;;;13.40;99.90;;;;;;5094279;28;20399;-72
2021/12/13 12:58:16;;;;;;;8.52;4.13;;;13.30;99.90;;;;;;5094108;28;20032;-72
2021/12/13 13:00:43;;;;;;;11.57;4.50;;;13.30;99.90;;;;;;5093752;28;20028;-72
2021/12/13 13:03:15;;;;;;;7.97;3.95;;;13.30;99.90;;;;;;5094387;28;20054;-71
2021/12/13 13:05:41;;;;;;;14.32;4.85;;;13.20;99.90;;;;;;5094358;28;20043;-72
2021/12/13 13:08:08;;;;;;;9.70;4.45;;;13.20;99.90;;;;;;5093640;28;20078;-72
2021/12/13 13:10:46;;;;;;;9.77;4.60;;;13.20;99.90;;;;;;5093401;28;20027;-72
2021/12/13 13:13:13;;;;;;;11.68;4.82;;;13.20;99.90;;;;;;5094147;28;20016;-72
2021/12/13 13:15:43;;;;;;;10.40;3.95;;;13.10;99.90;;;;;;5094064;28;20021;-72
2021/12/13 13:18:28;;;;;;;11.48;4.40;;;13.10;99.90;;;;;;5093941;28;20506;-72
2021/12/13 13:20:58;;;;;;;13.32;5.40;;;13.00;99.90;;;;;;5093479;28;20031;-72
2021/12/13 13:23:27;;;;;;;8.63;4.03;;;13.00;99.90;;;;;;5093742;28;20068;-72
2021/12/13 13:26:00;;;;;;;11.57;4.53;;;13.00;99.90;;;;;;5093574;28;20131;-72
2021/12/13 13:28:32;;;;;;;11.05;5.18;;;13.00;99.90;;;;;;5093832;28;20024;-72
2021/12/13 13:31:01;;;;;;;9.35;4.47;;;12.90;99.90;;;;;;5092259;28;20332;-71
2021/12/13 13:33:43;;;;;;;9.65;4.97;;;13.00;99.90;;;;;;5092105;28;20425;-72